Time;durP1;ratioP1;P1;durP2;ratioP2;P2;SDS_P1;SDS_P2;PMS_P1;PMS_P2;Temp;Humidity;BMP_temperature;BMP_pressure;BME280_temperature;BME280_humidity;BME280_pressure;Samples;Min_cycle;Max_cycle;Signal;HPM_P1;HPM_P2
2024/01/25 00:01:47;;;;;;;39.90;8.83;;;9.90;99.90;;;;;;5056182;28;20467;-56
2024/01/25 00:04:13;;;;;;;37.70;9.40;;;9.90;99.90;;;;;;5056155;28;20441;-56
2024/01/25 00:06:40;;;;;;;34.77;9.47;;;9.90;99.90;;;;;;5056080;28;20448;-59
2024/01/25 00:09:08;;;;;;;32.07;7.63;;;9.80;99.90;;;;;;5055950;28;20834;-58
2024/01/25 00:11:36;;;;;;;36.70;7.10;;;9.80;99.90;;;;;;5056043;28;20445;-59
2024/01/25 00:14:03;;;;;;;40.03;7.20;;;9.70;99.90;;;;;;5055739;28;20994;-59
2024/01/25 00:16:29;;;;;;;35.07;7.20;;;9.80;99.90;;;;;;5055898;28;20484;-58
2024/01/25 00:18:56;;;;;;;32.80;7.40;;;9.80;99.90;;;;;;5055749;28;20489;-59
2024/01/25 00:21:23;;;;;;;35.47;7.30;;;9.80;99.90;;;;;;5055778;28;20895;-59
2024/01/25 00:23:49;;;;;;;41.93;8.47;;;9.80;99.90;;;;;;5056005;28;20816;-59
2024/01/25 00:26:16;;;;;;;42.63;7.87;;;9.80;99.90;;;;;;5055818;28;20448;-59
2024/01/25 00:28:44;;;;;;;30.07;7.07;;;9.70;99.90;;;;;;5055243;28;20456;-59
2024/01/25 00:31:12;;;;;;;31.20;7.50;;;9.80;99.90;;;;;;5055560;28;20970;-56
2024/01/25 00:33:38;;;;;;;48.90;8.80;;;9.80;99.90;;;;;;5055819;28;20462;-56
2024/01/25 00:36:06;;;;;;;37.97;9.03;;;9.70;99.90;;;;;;5055962;28;20449;-56
2024/01/25 00:38:33;;;;;;;42.00;9.70;;;9.80;99.90;;;;;;5055535;28;20468;-58
2024/01/25 00:41:00;;;;;;;41.90;8.17;;;9.70;99.90;;;;;;5055425;28;20488;-59
2024/01/25 00:43:28;;;;;;;35.00;7.00;;;9.80;99.90;;;;;;5055501;28;20469;-59
2024/01/25 00:45:56;;;;;;;28.53;6.80;;;9.80;99.90;;;;;;5055898;28;20442;-56
2024/01/25 00:48:24;;;;;;;33.43;7.17;;;9.80;99.90;;;;;;5055292;28;20966;-56
2024/01/25 00:50:51;;;;;;;28.30;7.80;;;9.70;99.90;;;;;;5055413;28;20442;-56
2024/01/25 00:53:18;;;;;;;32.50;8.37;;;9.70;99.90;;;;;;5054919;28;20493;-58
2024/01/25 00:55:45;;;;;;;40.80;7.67;;;9.70;99.90;;;;;;5055215;28;20468;-56
2024/01/25 00:58:12;;;;;;;40.03;7.00;;;9.60;99.90;;;;;;5054678;28;20442;-56
2024/01/25 01:00:39;;;;;;;32.33;7.57;;;9.70;99.90;;;;;;5055001;28;20485;-56
2024/01/25 01:03:09;;;;;;;42.87;8.90;;;9.60;99.90;;;;;;5055012;28;20468;-58
2024/01/25 01:05:36;;;;;;;40.83;8.60;;;9.60;99.90;;;;;;5054953;28;20963;-56
2024/01/25 01:08:04;;;;;;;31.40;7.00;;;9.60;99.90;;;;;;5055069;28;20843;-57
2024/01/25 01:10:30;;;;;;;46.67;10.00;;;9.60;99.90;;;;;;5054627;28;20959;-57
2024/01/25 01:12:57;;;;;;;45.40;10.57;;;9.60;99.90;;;;;;5054879;28;20488;-57
2024/01/25 01:15:24;;;;;;;34.37;7.53;;;9.60;99.90;;;;;;5054430;28;20939;-57
2024/01/25 01:17:50;;;;;;;38.80;7.47;;;9.60;99.90;;;;;;5054742;28;20438;-57
2024/01/25 01:20:18;;;;;;;37.30;8.10;;;9.50;99.90;;;;;;5054828;28;20473;-57
2024/01/25 01:22:45;;;;;;;44.97;8.50;;;9.50;99.90;;;;;;5054706;28;20466;-57
2024/01/25 01:25:12;;;;;;;46.33;7.70;;;9.50;99.90;;;;;;5054681;28;20948;-57
2024/01/25 01:27:38;;;;;;;40.33;8.27;;;9.50;99.90;;;;;;5054519;28;20446;-57
2024/01/25 01:30:08;;;;;;;38.13;7.70;;;9.40;99.90;;;;;;5054649;28;20445;-57
2024/01/25 01:32:34;;;;;;;41.73;8.20;;;9.40;99.90;;;;;;5054224;28;20850;-57
2024/01/25 01:35:01;;;;;;;32.23;7.53;;;9.30;99.90;;;;;;5054398;28;20446;-57
2024/01/25 01:37:29;;;;;;;43.20;7.80;;;9.30;99.90;;;;;;5054458;28;20453;-57
2024/01/25 01:39:58;;;;;;;33.27;6.80;;;9.30;99.90;;;;;;5053473;28;20488;-57
2024/01/25 01:42:24;;;;;;;42.80;7.30;;;9.30;99.90;;;;;;5054324;28;20469;-57
2024/01/25 01:44:53;;;;;;;35.43;6.93;;;9.30;99.90;;;;;;5054109;28;20453;-58
2024/01/25 01:47:20;;;;;;;37.67;7.83;;;9.30;99.90;;;;;;5054506;28;20442;-57
2024/01/25 01:49:48;;;;;;;36.20;7.43;;;9.30;99.90;;;;;;5054183;28;20453;-57
2024/01/25 01:52:15;;;;;;;33.10;8.07;;;9.30;99.90;;;;;;5053939;28;20504;-58
2024/01/25 01:54:43;;;;;;;33.40;7.70;;;9.30;99.90;;;;;;5054139;28;20445;-57
2024/01/25 01:57:10;;;;;;;36.17;7.10;;;9.30;99.90;;;;;;5054086;28;20452;-57
2024/01/25 01:59:36;;;;;;;29.37;7.77;;;9.30;99.90;;;;;;5054006;28;20496;-58
2024/01/25 02:02:03;;;;;;;34.87;6.93;;;9.30;99.90;;;;;;5053862;28;20468;-58
2024/01/25 02:04:30;;;;;;;42.50;8.03;;;9.30;99.90;;;;;;5053995;28;20437;-58
2024/01/25 02:06:57;;;;;;;36.17;8.33;;;9.30;99.90;;;;;;5053809;28;20453;-58
2024/01/25 02:09:23;;;;;;;47.23;9.27;;;9.20;99.90;;;;;;5053675;28;20936;-58
2024/01/25 02:12:01;;;;;;;60.90;9.57;;;9.20;99.90;;;;;;5053873;28;20462;-58
2024/01/25 02:14:28;;;;;;;40.97;7.93;;;9.30;99.90;;;;;;5053791;28;20507;-58
2024/01/25 02:16:55;;;;;;;41.40;9.73;;;9.20;99.90;;;;;;5053425;28;21031;-58
2024/01/25 02:19:22;;;;;;;40.47;8.10;;;9.20;99.90;;;;;;5053506;28;20441;-58
2024/01/25 02:21:50;;;;;;;42.63;7.57;;;9.20;99.90;;;;;;5053598;28;20493;-58
2024/01/25 02:24:18;;;;;;;34.53;7.40;;;9.20;99.90;;;;;;5053642;28;20871;-58
2024/01/25 02:26:45;;;;;;;35.83;9.30;;;9.20;99.90;;;;;;5053651;28;20449;-58
2024/01/25 02:29:12;;;;;;;31.07;7.87;;;9.20;99.90;;;;;;5053635;28;20444;-58
2024/01/25 02:31:39;;;;;;;40.23;8.13;;;9.10;99.90;;;;;;5052990;28;20998;-58
2024/01/25 02:34:05;;;;;;;38.33;8.87;;;9.20;99.90;;;;;;5053506;28;20450;-58
2024/01/25 02:36:32;;;;;;;41.03;7.73;;;9.20;99.90;;;;;;5053459;28;20442;-58
2024/01/25 02:38:59;;;;;;;39.70;8.63;;;9.10;99.90;;;;;;5053479;28;20453;-58
2024/01/25 02:41:30;;;;;;;29.33;7.03;;;9.20;99.90;;;;;;5053266;28;20488;-58
2024/01/25 02:43:56;;;;;;;43.67;8.40;;;9.10;99.90;;;;;;5053015;28;20804;-58
2024/01/25 02:46:23;;;;;;;43.57;8.70;;;9.10;99.90;;;;;;5053243;28;20816;-58
2024/01/25 02:48:50;;;;;;;43.27;6.90;;;9.20;99.90;;;;;;5052990;28;20445;-58
2024/01/25 02:51:18;;;;;;;45.50;7.50;;;9.10;99.90;;;;;;5053123;28;20437;-58
2024/01/25 02:53:45;;;;;;;41.47;7.70;;;9.10;99.90;;;;;;5052989;28;20454;-58
2024/01/25 02:56:11;;;;;;;49.70;9.27;;;9.10;99.90;;;;;;5053234;28;20449;-58
2024/01/25 02:58:39;;;;;;;38.40;8.27;;;9.00;99.90;;;;;;5053724;28;20438;-58
2024/01/25 03:01:06;;;;;;;26.40;7.47;;;9.00;99.90;;;;;;5052708;28;20482;-58
2024/01/25 03:03:33;;;;;;;40.10;8.40;;;9.00;99.90;;;;;;5052863;28;20890;-58
2024/01/25 03:06:00;;;;;;;39.63;7.10;;;9.00;99.90;;;;;;5052961;28;20438;-58
2024/01/25 03:08:27;;;;;;;34.70;8.20;;;8.90;99.90;;;;;;5053205;28;20470;-58
2024/01/25 03:10:54;;;;;;;33.23;9.53;;;8.90;99.90;;;;;;5053305;28;20446;-58
2024/01/25 03:13:21;;;;;;;54.30;8.63;;;8.90;99.90;;;;;;5053182;28;20477;-58
2024/01/25 03:15:49;;;;;;;41.13;7.53;;;8.90;99.90;;;;;;5053031;28;20448;-58
2024/01/25 03:18:16;;;;;;;41.37;8.27;;;8.90;99.90;;;;;;5053011;28;20861;-58
2024/01/25 03:20:42;;;;;;;41.60;9.00;;;8.80;99.90;;;;;;5053016;28;20489;-58
2024/01/25 03:23:09;;;;;;;39.30;8.57;;;8.80;99.90;;;;;;5052965;28;20469;-58
2024/01/25 03:25:36;;;;;;;39.43;8.80;;;8.80;99.90;;;;;;5052742;28;20529;-58
2024/01/25 03:28:02;;;;;;;41.30;8.27;;;8.80;99.90;;;;;;5053020;28;20804;-58
2024/01/25 03:30:29;;;;;;;33.30;6.90;;;8.80;99.90;;;;;;5053029;28;20823;-59
2024/01/25 03:32:57;;;;;;;46.43;8.83;;;8.80;99.90;;;;;;5052774;28;20472;-58
2024/01/25 03:35:24;;;;;;;36.47;7.17;;;8.70;99.90;;;;;;5052926;28;20446;-58
2024/01/25 03:37:50;;;;;;;48.63;10.23;;;8.70;99.90;;;;;;5052828;28;20532;-59
2024/01/25 03:40:17;;;;;;;42.77;7.40;;;8.70;99.90;;;;;;5052809;28;20484;-58
2024/01/25 03:42:44;;;;;;;37.37;8.10;;;8.60;99.90;;;;;;5052682;28;20472;-58
2024/01/25 03:45:11;;;;;;;49.83;9.07;;;8.60;99.90;;;;;;5052489;28;20842;-58
2024/01/25 03:47:37;;;;;;;44.03;7.63;;;8.60;99.90;;;;;;5052538;28;20446;-59
2024/01/25 03:50:06;;;;;;;36.23;9.23;;;8.60;99.90;;;;;;5052830;28;20445;-59
2024/01/25 03:52:33;;;;;;;35.80;6.67;;;8.50;99.90;;;;;;5052168;28;20481;-59
2024/01/25 03:54:59;;;;;;;39.27;9.53;;;8.50;99.90;;;;;;5052690;28;20441;-58
2024/01/25 03:57:26;;;;;;;44.73;8.33;;;8.50;99.90;;;;;;5052946;28;20448;-59
2024/01/25 03:59:53;;;;;;;33.97;7.90;;;8.50;99.90;;;;;;5052649;28;20445;-58
2024/01/25 04:02:19;;;;;;;42.60;10.07;;;8.50;99.90;;;;;;5052627;28;20470;-59
2024/01/25 04:04:46;;;;;;;40.00;9.43;;;8.50;99.90;;;;;;5056366;28;20487;-59
2024/01/25 04:07:14;;;;;;;53.87;8.40;;;8.50;99.90;;;;;;5056461;28;20493;-59
2024/01/25 04:09:41;;;;;;;42.50;9.27;;;8.50;99.90;;;;;;5056183;28;20498;-59
2024/01/25 04:12:08;;;;;;;32.40;7.60;;;8.50;99.90;;;;;;5056194;28;20466;-59
2024/01/25 04:14:34;;;;;;;41.63;8.23;;;8.40;99.90;;;;;;5056142;28;20473;-59
2024/01/25 04:17:01;;;;;;;39.37;8.50;;;8.40;99.90;;;;;;5056254;28;20452;-58
2024/01/25 04:19:28;;;;;;;40.67;7.60;;;8.40;99.90;;;;;;5056293;28;20450;-59
2024/01/25 04:21:54;;;;;;;41.00;7.63;;;8.40;99.90;;;;;;5056447;28;20512;-59
2024/01/25 04:24:25;;;;;;;35.67;7.30;;;8.40;99.90;;;;;;5055957;28;20452;-59
2024/01/25 04:26:52;;;;;;;50.93;9.37;;;8.30;99.90;;;;;;5056587;28;20450;-59
2024/01/25 04:29:18;;;;;;;43.00;6.93;;;8.30;99.90;;;;;;5055817;28;20452;-59
2024/01/25 04:31:48;;;;;;;35.57;7.43;;;8.30;99.90;;;;;;5055609;28;20461;-59
2024/01/25 04:34:15;;;;;;;41.77;7.47;;;8.30;99.90;;;;;;5055849;28;20449;-59
2024/01/25 04:36:41;;;;;;;46.00;8.23;;;8.30;99.90;;;;;;5055659;28;20449;-59
2024/01/25 04:39:08;;;;;;;32.87;7.77;;;8.30;99.90;;;;;;5055604;28;20438;-59
2024/01/25 04:41:37;;;;;;;55.17;8.87;;;8.20;99.90;;;;;;5055484;28;20827;-59
2024/01/25 04:44:04;;;;;;;36.70;7.30;;;8.20;99.90;;;;;;5055300;28;20828;-59
2024/01/25 04:46:35;;;;;;;38.80;9.63;;;8.20;99.90;;;;;;5055460;28;20446;-59
2024/01/25 04:49:02;;;;;;;32.33;7.70;;;8.20;99.90;;;;;;5055152;28;20492;-59
2024/01/25 04:51:28;;;;;;;42.13;8.37;;;8.20;99.90;;;;;;5055055;28;20473;-59
2024/01/25 04:53:55;;;;;;;39.20;8.03;;;8.20;99.90;;;;;;5055208;28;20445;-59
2024/01/25 04:56:23;;;;;;;44.67;9.60;;;8.10;99.90;;;;;;5055406;28;20520;-59
2024/01/25 04:58:51;;;;;;;37.97;8.00;;;8.10;99.90;;;;;;5055306;28;20446;-59
2024/01/25 05:01:18;;;;;;;40.27;8.20;;;8.00;99.90;;;;;;5055177;28;20504;-59
2024/01/25 05:03:44;;;;;;;39.60;7.40;;;8.00;99.90;;;;;;5055205;28;20492;-59
2024/01/25 05:06:11;;;;;;;37.47;7.60;;;7.90;99.90;;;;;;5055209;28;20449;-59
2024/01/25 05:08:38;;;;;;;30.17;7.13;;;7.90;99.90;;;;;;5055138;28;20445;-59
2024/01/25 05:11:05;;;;;;;46.00;7.67;;;8.00;99.90;;;;;;5055009;28;20442;-60
2024/01/25 05:13:31;;;;;;;28.73;8.10;;;8.00;99.90;;;;;;5054572;28;20465;-59
2024/01/25 05:15:59;;;;;;;38.87;7.70;;;8.00;99.90;;;;;;5054653;28;20921;-59
2024/01/25 05:18:26;;;;;;;38.77;9.07;;;8.00;99.90;;;;;;5054948;28;20446;-59
2024/01/25 05:20:53;;;;;;;39.30;7.30;;;8.00;99.90;;;;;;5055222;28;20484;-60
2024/01/25 05:23:19;;;;;;;29.83;7.20;;;8.00;99.90;;;;;;5054642;28;20472;-59
2024/01/25 05:25:46;;;;;;;45.40;7.33;;;8.00;99.90;;;;;;5054915;28;20441;-59
2024/01/25 05:28:13;;;;;;;34.17;7.80;;;7.90;99.90;;;;;;5055016;28;20549;-59
2024/01/25 05:30:40;;;;;;;30.57;8.60;;;7.90;99.90;;;;;;5054797;28;20907;-59
2024/01/25 05:33:08;;;;;;;43.47;8.10;;;7.80;99.90;;;;;;5055094;28;20466;-59
2024/01/25 05:35:35;;;;;;;32.93;7.80;;;7.80;99.90;;;;;;5054732;28;20452;-60
2024/01/25 05:38:02;;;;;;;39.50;7.87;;;7.80;99.90;;;;;;5054696;28;20446;-59
2024/01/25 05:40:28;;;;;;;39.83;7.63;;;7.90;99.90;;;;;;5054600;28;20452;-59
2024/01/25 05:42:55;;;;;;;40.40;8.50;;;7.80;99.90;;;;;;5054719;28;20461;-59
2024/01/25 05:45:23;;;;;;;30.83;6.93;;;7.80;99.90;;;;;;5054773;28;20472;-60
2024/01/25 05:47:50;;;;;;;35.47;7.30;;;7.80;99.90;;;;;;5054797;28;20503;-60
2024/01/25 05:50:18;;;;;;;42.33;9.10;;;7.70;99.90;;;;;;5054566;28;20472;-59
2024/01/25 05:52:45;;;;;;;36.57;8.60;;;7.80;99.90;;;;;;5053932;28;20516;-60
2024/01/25 05:55:13;;;;;;;28.70;7.27;;;7.70;99.90;;;;;;5054177;28;20958;-60
2024/01/25 05:57:40;;;;;;;41.07;8.23;;;7.70;99.90;;;;;;5054202;28;20943;-59
2024/01/25 06:00:08;;;;;;;47.10;8.33;;;7.70;99.90;;;;;;5054421;28;20445;-60
2024/01/25 06:02:35;;;;;;;34.63;8.17;;;7.70;99.90;;;;;;5053818;28;21053;-60
2024/01/25 06:05:01;;;;;;;41.43;8.60;;;7.70;99.90;;;;;;5054210;28;20445;-59
2024/01/25 06:07:29;;;;;;;35.50;9.00;;;7.70;99.90;;;;;;5054346;28;20440;-60
2024/01/25 06:09:56;;;;;;;31.17;7.27;;;7.70;99.90;;;;;;5053943;28;20472;-60
2024/01/25 06:12:23;;;;;;;41.40;9.30;;;7.70;99.90;;;;;;5053796;28;20464;-60
2024/01/25 06:14:51;;;;;;;23.10;6.50;;;7.60;99.90;;;;;;5054033;28;20452;-59
2024/01/25 06:17:18;;;;;;;42.73;7.63;;;7.60;99.90;;;;;;5053509;28;20445;-60
2024/01/25 06:19:45;;;;;;;38.70;7.77;;;7.60;99.90;;;;;;5054658;28;20445;-59
2024/01/25 06:22:12;;;;;;;37.60;8.50;;;7.60;99.90;;;;;;5053588;28;20489;-60
2024/01/25 06:24:40;;;;;;;37.07;7.27;;;7.50;99.90;;;;;;5053378;28;20488;-60
2024/01/25 06:27:07;;;;;;;35.17;8.17;;;7.50;99.90;;;;;;5052905;28;20940;-60
2024/01/25 06:29:33;;;;;;;32.33;8.10;;;7.40;99.90;;;;;;5053731;28;20780;-60
2024/01/25 06:32:00;;;;;;;33.90;8.07;;;7.50;99.90;;;;;;5053319;28;20830;-60
2024/01/25 06:34:27;;;;;;;40.33;7.47;;;7.50;99.90;;;;;;5053596;28;20453;-60
2024/01/25 06:36:54;;;;;;;43.70;8.10;;;7.40;99.90;;;;;;5053473;28;20460;-59
2024/01/25 06:39:20;;;;;;;41.10;7.57;;;7.50;99.90;;;;;;5053599;28;20452;-59
2024/01/25 06:41:48;;;;;;;52.87;8.17;;;7.40;99.90;;;;;;5053303;28;20485;-60
2024/01/25 06:44:15;;;;;;;35.33;8.07;;;7.50;99.90;;;;;;5053508;28;20441;-60
2024/01/25 06:46:45;;;;;;;30.57;8.27;;;7.50;99.90;;;;;;5053497;28;20437;-60
2024/01/25 06:49:12;;;;;;;32.40;7.00;;;7.50;99.90;;;;;;5053411;28;20503;-59
2024/01/25 06:51:38;;;;;;;34.00;8.47;;;7.50;99.90;;;;;;5053110;28;20437;-60
2024/01/25 06:54:05;;;;;;;38.07;10.20;;;7.60;99.90;;;;;;5053207;28;20950;-60
2024/01/25 06:56:33;;;;;;;38.57;9.10;;;7.60;99.90;;;;;;5053563;28;20442;-59
2024/01/25 06:59:01;;;;;;;38.67;9.40;;;7.50;99.90;;;;;;5053099;28;20453;-59
2024/01/25 07:01:30;;;;;;;31.83;7.87;;;7.50;99.90;;;;;;5052705;28;21021;-59
2024/01/25 07:03:57;;;;;;;37.20;7.47;;;7.50;99.90;;;;;;5053160;28;20442;-59
2024/01/25 07:06:23;;;;;;;46.30;9.10;;;7.50;99.90;;;;;;5053142;28;20448;-60
2024/01/25 07:08:50;;;;;;;47.13;9.60;;;7.30;99.90;;;;;;5054248;28;20945;-59
2024/01/25 07:11:17;;;;;;;38.87;8.43;;;7.30;99.90;;;;;;5053477;28;20484;-59
2024/01/25 07:13:43;;;;;;;48.83;8.50;;;7.30;99.90;;;;;;5053213;28;20466;-59
2024/01/25 07:16:11;;;;;;;53.70;10.87;;;7.20;99.90;;;;;;5053398;28;20962;-59
2024/01/25 07:18:37;;;;;;;41.20;9.20;;;7.30;99.90;;;;;;5053201;28;20214;-59
2024/01/25 07:21:05;;;;;;;41.77;8.10;;;7.20;99.90;;;;;;5052884;28;20836;-59
2024/01/25 07:23:31;;;;;;;52.90;10.07;;;7.20;99.90;;;;;;5053138;28;20466;-59
2024/01/25 07:25:58;;;;;;;37.53;9.33;;;7.20;99.90;;;;;;5053213;28;20444;-59
2024/01/25 07:28:25;;;;;;;36.20;9.40;;;7.20;99.90;;;;;;5053262;28;20448;-59
2024/01/25 07:30:51;;;;;;;46.50;10.83;;;7.30;99.90;;;;;;5053078;28;20457;-60
2024/01/25 07:33:20;;;;;;;55.97;12.80;;;7.30;99.90;;;;;;5053083;28;20465;-60
2024/01/25 07:35:47;;;;;;;53.73;13.07;;;7.30;99.90;;;;;;5052967;28;20496;-60
2024/01/25 07:38:14;;;;;;;49.90;14.00;;;7.30;99.90;;;;;;5054645;28;20446;-59
2024/01/25 07:40:41;;;;;;;47.07;12.10;;;7.40;99.90;;;;;;5056857;28;20444;-59
2024/01/25 07:43:08;;;;;;;55.70;14.17;;;7.40;99.90;;;;;;5056285;28;20480;-59
2024/01/25 07:45:34;;;;;;;52.33;12.60;;;7.40;99.90;;;;;;5056452;28;20935;-59
2024/01/25 07:48:02;;;;;;;46.20;13.50;;;7.50;99.90;;;;;;5056614;28;20449;-60
2024/01/25 07:50:29;;;;;;;47.93;13.93;;;7.60;99.90;;;;;;5057661;28;20445;-60
2024/01/25 07:52:55;;;;;;;47.00;11.93;;;7.60;99.90;;;;;;5056263;28;20577;-60
2024/01/25 07:55:22;;;;;;;51.30;11.93;;;7.70;99.90;;;;;;5056370;28;20443;-61
2024/01/25 07:57:49;;;;;;;38.30;12.07;;;7.70;99.90;;;;;;5056425;28;20520;-60
2024/01/25 08:00:16;;;;;;;41.33;10.73;;;7.80;99.90;;;;;;5056055;28;20962;-60
2024/01/25 08:02:44;;;;;;;38.87;11.13;;;7.80;99.90;;;;;;5056143;28;20492;-60
2024/01/25 08:05:11;;;;;;;47.83;11.47;;;7.90;99.90;;;;;;5056214;28;20445;-60
2024/01/25 08:07:40;;;;;;;45.10;12.53;;;7.90;99.90;;;;;;5056206;28;20453;-60
2024/01/25 08:10:08;;;;;;;44.13;10.07;;;8.00;99.90;;;;;;5056205;28;20445;-60
2024/01/25 08:12:35;;;;;;;36.53;10.40;;;8.00;99.90;;;;;;5055913;28;20552;-60
2024/01/25 08:15:01;;;;;;;44.63;11.13;;;8.10;99.90;;;;;;5056182;28;20449;-60
2024/01/25 08:17:28;;;;;;;38.53;10.13;;;8.20;99.90;;;;;;5056081;28;20445;-60
2024/01/25 08:19:55;;;;;;;37.67;10.33;;;8.30;99.90;;;;;;5056011;28;20445;-60
2024/01/25 08:22:23;;;;;;;45.07;11.50;;;8.30;99.90;;;;;;5055799;28;20493;-59
2024/01/25 08:24:51;;;;;;;42.57;10.77;;;8.40;99.90;;;;;;5055870;28;20453;-60
2024/01/25 08:27:17;;;;;;;38.33;10.67;;;8.40;99.90;;;;;;5055861;28;20457;-59
2024/01/25 08:29:44;;;;;;;48.57;10.37;;;8.50;99.90;;;;;;5055454;28;20935;-60
2024/01/25 08:32:11;;;;;;;44.23;10.23;;;8.60;99.90;;;;;;5055553;28;20846;-60
2024/01/25 08:34:37;;;;;;;43.53;9.57;;;8.60;99.90;;;;;;5055643;28;20453;-60
2024/01/25 08:37:04;;;;;;;45.20;11.77;;;8.50;99.90;;;;;;5055601;28;20445;-59
2024/01/25 08:39:31;;;;;;;36.03;11.83;;;8.50;99.90;;;;;;5055582;28;20476;-59
2024/01/25 08:42:02;;;;;;;45.53;11.10;;;8.60;99.90;;;;;;5055411;28;20481;-60
2024/01/25 08:44:29;;;;;;;39.80;11.00;;;8.70;99.90;;;;;;5055274;28;20457;-59
2024/01/25 08:46:55;;;;;;;41.13;10.53;;;8.60;99.90;;;;;;5055481;28;20450;-59
2024/01/25 08:49:22;;;;;;;42.93;12.67;;;8.70;99.90;;;;;;5055258;28;20438;-59
2024/01/25 08:51:49;;;;;;;39.03;10.10;;;8.60;99.90;;;;;;5055087;28;20485;-59
2024/01/25 08:54:15;;;;;;;50.90;11.70;;;8.70;99.90;;;;;;5055278;28;20426;-59
2024/01/25 08:56:42;;;;;;;50.57;12.20;;;8.60;99.90;;;;;;5055227;28;20832;-59
2024/01/25 08:59:10;;;;;;;47.20;13.83;;;8.60;99.90;;;;;;5055246;28;20445;-59
2024/01/25 09:01:37;;;;;;;36.67;11.93;;;8.60;99.90;;;;;;5054937;28;20492;-59
2024/01/25 09:04:04;;;;;;;45.00;12.90;;;8.60;99.90;;;;;;5055145;28;20437;-59
2024/01/25 09:06:30;;;;;;;50.23;12.97;;;8.70;99.90;;;;;;5055056;28;20450;-59
2024/01/25 09:08:57;;;;;;;43.37;12.17;;;8.80;99.90;;;;;;5055315;28;20434;-59
2024/01/25 09:11:24;;;;;;;40.63;11.00;;;8.70;99.90;;;;;;5054782;28;20966;-62
2024/01/25 09:13:51;;;;;;;49.70;11.33;;;8.70;99.90;;;;;;5054813;28;20453;-58
2024/01/25 09:16:19;;;;;;;49.77;12.17;;;8.80;99.90;;;;;;5054950;28;20453;-59
2024/01/25 09:18:46;;;;;;;43.63;11.33;;;8.80;99.90;;;;;;5054810;28;20448;-59
2024/01/25 09:21:13;;;;;;;52.80;12.53;;;9.00;99.90;;;;;;5054868;28;20445;-59
2024/01/25 09:23:40;;;;;;;39.50;10.50;;;8.90;99.90;;;;;;5055015;28;20485;-59
2024/01/25 09:26:07;;;;;;;34.53;9.60;;;9.00;99.90;;;;;;5054738;28;20481;-59
2024/01/25 09:28:33;;;;;;;33.33;10.23;;;9.10;99.90;;;;;;5054673;28;20445;-58
2024/01/25 09:31:00;;;;;;;40.03;9.33;;;9.20;99.90;;;;;;5055002;28;20441;-58
2024/01/25 09:33:29;;;;;;;48.00;10.97;;;9.30;99.90;;;;;;5054322;28;20454;-59
2024/01/25 09:35:56;;;;;;;35.93;9.20;;;9.30;99.90;;;;;;5054210;28;21043;-59
2024/01/25 09:38:23;;;;;;;31.50;9.57;;;9.40;99.90;;;;;;5054480;28;20453;-59
2024/01/25 09:40:51;;;;;;;40.73;10.00;;;9.40;99.90;;;;;;5054109;28;20955;-59
2024/01/25 09:43:19;;;;;;;43.03;10.77;;;9.50;99.90;;;;;;5054346;28;20836;-59
2024/01/25 09:45:49;;;;;;;35.03;9.70;;;9.40;99.90;;;;;;5054330;28;20437;-59
2024/01/25 09:48:17;;;;;;;38.60;10.07;;;9.40;99.90;;;;;;5054410;28;20820;-59
2024/01/25 09:50:47;;;;;;;32.67;7.93;;;9.40;99.90;;;;;;5053889;28;20825;-59
2024/01/25 09:53:21;;;;;;;42.13;9.20;;;9.40;99.90;;;;;;5053972;28;20476;-59
2024/01/25 09:55:55;;;;;;;37.50;9.13;;;9.50;99.90;;;;;;5054236;28;20440;-59
2024/01/25 09:58:22;;;;;;;44.03;10.47;;;9.60;99.90;;;;;;5053881;28;20907;-59
2024/01/25 10:00:49;;;;;;;35.20;9.90;;;9.70;99.90;;;;;;5053281;28;20440;-59
2024/01/25 10:03:16;;;;;;;38.27;12.43;;;9.80;99.90;;;;;;5053775;28;20503;-59
2024/01/25 10:05:44;;;;;;;33.20;9.53;;;9.90;99.90;;;;;;5053965;28;20453;-59
2024/01/25 10:08:14;;;;;;;44.27;12.17;;;10.00;99.90;;;;;;5054229;28;20445;-59
2024/01/25 10:10:41;;;;;;;27.63;10.00;;;10.20;99.90;;;;;;5054174;28;20449;-59
2024/01/25 10:13:13;;;;;;;31.30;10.20;;;10.30;99.90;;;;;;5053759;28;20817;-59
2024/01/25 10:15:41;;;;;;;38.20;10.03;;;10.30;99.90;;;;;;5053533;28;20426;-59
2024/01/25 10:18:12;;;;;;;54.03;11.83;;;10.40;99.90;;;;;;5054227;28;20544;-59
2024/01/25 10:20:40;;;;;;;39.67;12.47;;;10.40;99.90;;;;;;5053760;28;20969;-59
2024/01/25 10:23:08;;;;;;;37.50;13.40;;;10.50;99.90;;;;;;5053962;28;20485;-59
2024/01/25 10:25:35;;;;;;;37.83;15.77;;;10.60;99.90;;;;;;5053759;28;20444;-59
2024/01/25 10:28:02;;;;;;;48.63;16.43;;;10.70;99.90;;;;;;5053848;28;20453;-59
2024/01/25 10:30:33;;;;;;;55.00;18.10;;;10.70;99.90;;;;;;5053633;28;20959;-59
2024/01/25 10:33:00;;;;;;;47.03;17.67;;;10.70;99.90;;;;;;5054026;28;20454;-59
2024/01/25 10:35:27;;;;;;;48.13;18.50;;;10.70;99.90;;;;;;5053731;28;20438;-59
2024/01/25 10:37:54;;;;;;;51.43;19.60;;;10.70;99.90;;;;;;5053664;28;20445;-59
2024/01/25 10:40:22;;;;;;;52.77;19.70;;;10.70;99.90;;;;;;5053390;28;20441;-58
2024/01/25 10:42:50;;;;;;;51.73;20.30;;;10.60;99.90;;;;;;5053373;28;20489;-59
2024/01/25 10:45:17;;;;;;;55.23;19.33;;;10.70;99.90;;;;;;5053390;28;20446;-59
2024/01/25 10:47:44;;;;;;;49.70;20.37;;;10.60;99.90;;;;;;5053528;28;20450;-59
2024/01/25 10:50:13;;;;;;;44.77;19.97;;;10.50;99.90;;;;;;5053375;28;20450;-59
2024/01/25 10:52:41;;;;;;;60.83;21.07;;;10.50;99.90;;;;;;5053217;28;20504;-59
2024/01/25 10:55:08;;;;;;;56.17;20.70;;;10.50;99.90;;;;;;5052891;28;20445;-59
2024/01/25 10:57:38;;;;;;;57.03;20.60;;;10.50;99.90;;;;;;5053517;28;20983;-59
2024/01/25 11:00:09;;;;;;;55.47;20.87;;;10.40;99.90;;;;;;5053224;28;20453;-59
2024/01/25 11:02:36;;;;;;;43.30;19.90;;;10.40;99.90;;;;;;5053074;28;20517;-58
2024/01/25 11:05:03;;;;;;;54.43;20.53;;;10.30;99.90;;;;;;5053191;28;20442;-59
2024/01/25 11:07:30;;;;;;;53.57;21.00;;;10.30;99.90;;;;;;5053326;28;20454;-59
2024/01/25 11:09:57;;;;;;;53.30;20.00;;;10.30;99.90;;;;;;5053100;28;20473;-58
2024/01/25 11:12:24;;;;;;;53.00;22.83;;;10.40;99.90;;;;;;5054999;28;20461;-58
2024/01/25 11:14:56;;;;;;;51.63;20.83;;;10.60;99.90;;;;;;5057225;28;20498;-59
2024/01/25 11:17:23;;;;;;;43.10;18.63;;;10.60;99.90;;;;;;5057363;28;20433;-58
2024/01/25 11:19:51;;;;;;;46.93;19.70;;;10.70;99.90;;;;;;5057190;28;20454;-58
2024/01/25 11:22:18;;;;;;;49.87;19.60;;;10.90;99.90;;;;;;5056963;28;20469;-58
2024/01/25 11:24:45;;;;;;;45.93;19.77;;;11.10;99.90;;;;;;5056719;28;20957;-58
2024/01/25 11:27:12;;;;;;;43.87;18.10;;;11.20;99.90;;;;;;5057098;28;20456;-58
2024/01/25 11:29:40;;;;;;;50.10;18.60;;;11.40;99.90;;;;;;5058000;28;20851;-58
2024/01/25 11:32:10;;;;;;;37.77;16.70;;;11.40;99.90;;;;;;5056827;28;20556;-59
2024/01/25 11:34:36;;;;;;;39.47;18.20;;;11.60;99.90;;;;;;5056737;28;20450;-59
2024/01/25 11:37:03;;;;;;;37.60;16.40;;;11.80;99.90;;;;;;5056843;28;20454;-58
2024/01/25 11:39:30;;;;;;;41.13;16.27;;;12.00;99.90;;;;;;5056758;28;20453;-58
2024/01/25 11:41:57;;;;;;;32.47;17.30;;;12.00;99.90;;;;;;5056714;28;20462;-58
2024/01/25 11:44:24;;;;;;;50.37;16.53;;;12.10;99.90;;;;;;5056579;28;20485;-58
2024/01/25 11:46:51;;;;;;;43.47;16.47;;;12.10;99.90;;;;;;5056710;28;20445;-58
2024/01/25 11:49:19;;;;;;;37.17;14.80;;;12.10;99.90;;;;;;5056713;28;20473;-58
2024/01/25 11:51:46;;;;;;;31.70;14.83;;;12.40;99.90;;;;;;5056362;28;20464;-58
2024/01/25 11:54:12;;;;;;;46.07;15.80;;;12.50;99.90;;;;;;5056449;28;20426;-58
2024/01/25 11:56:41;;;;;;;39.30;16.10;;;12.60;99.90;;;;;;5056228;28;20954;-58
2024/01/25 11:59:09;;;;;;;36.77;15.30;;;12.80;99.90;;;;;;5056154;28;20940;-58
2024/01/25 12:01:35;;;;;;;44.90;16.70;;;12.90;99.90;;;;;;5056787;28;20449;-58
2024/01/25 12:04:02;;;;;;;37.60;15.97;;;12.90;99.80;;;;;;5056232;28;20481;-58
2024/01/25 12:06:31;;;;;;;41.73;16.27;;;13.00;99.90;;;;;;5056353;28;20811;-58
2024/01/25 12:09:08;;;;;;;36.53;15.77;;;13.10;99.90;;;;;;5056242;28;20445;-58
2024/01/25 12:11:35;;;;;;;44.30;16.30;;;13.20;99.60;;;;;;5056206;28;20465;-58
2024/01/25 12:14:01;;;;;;;39.50;16.00;;;13.30;99.60;;;;;;5056280;28;20444;-58
2024/01/25 12:16:28;;;;;;;35.83;16.27;;;13.40;99.60;;;;;;5056343;28;20445;-58
2024/01/25 12:18:55;;;;;;;38.17;17.10;;;13.60;99.60;;;;;;5056116;28;20442;-58
2024/01/25 12:21:21;;;;;;;39.53;14.77;;;13.90;99.20;;;;;;5056137;28;20449;-58
2024/01/25 12:23:49;;;;;;;40.70;16.37;;;14.00;98.10;;;;;;5054995;28;20484;-58
2024/01/25 12:26:17;;;;;;;34.37;15.20;;;14.10;97.10;;;;;;5056147;28;20446;-58
2024/01/25 12:28:44;;;;;;;33.43;14.83;;;14.10;96.60;;;;;;5055610;28;20974;-58
2024/01/25 12:31:10;;;;;;;36.83;15.30;;;14.10;96.90;;;;;;5055915;28;20441;-58
2024/01/25 12:33:37;;;;;;;36.00;15.80;;;14.10;97.00;;;;;;5055439;28;20905;-58
2024/01/25 12:36:04;;;;;;;38.43;13.30;;;14.10;97.20;;;;;;5055943;28;20445;-58
2024/01/25 12:38:34;;;;;;;31.27;14.43;;;14.10;96.90;;;;;;5056536;28;20452;-58
2024/01/25 12:41:03;;;;;;;36.80;14.00;;;14.10;97.00;;;;;;5055825;28;20441;-58